sensor_id;sensor_type;location;lat;lon;timestamp;P1;durP1;ratioP1;P2;durP2;ratioP2
68074;SDS011;54864;52.002;5.468;2023-04-24T00:00:55;5.38;;;2.85;;
68074;SDS011;54864;52.002;5.468;2023-04-24T00:01:56;4.40;;;2.72;;
68074;SDS011;54864;52.002;5.468;2023-04-24T00:02:58;3.38;;;2.30;;
68074;SDS011;54864;52.002;5.468;2023-04-24T00:03:59;3.88;;;2.40;;
68074;SDS011;54864;52.002;5.468;2023-04-24T00:05:03;3.47;;;2.60;;
68074;SDS011;54864;52.002;5.468;2023-04-24T00:06:05;4.97;;;2.50;;
68074;SDS011;54864;52.002;5.468;2023-04-24T00:07:08;3.42;;;2.40;;
68074;SDS011;54864;52.002;5.468;2023-04-24T00:08:08;3.30;;;2.57;;
68074;SDS011;54864;52.002;5.468;2023-04-24T00:09:10;3.78;;;2.30;;
68074;SDS011;54864;52.002;5.468;2023-04-24T00:10:11;3.27;;;2.30;;
68074;SDS011;54864;52.002;5.468;2023-04-24T00:11:17;3.50;;;2.38;;
68074;SDS011;54864;52.002;5.468;2023-04-24T00:12:18;5.85;;;2.70;;
68074;SDS011;54864;52.002;5.468;2023-04-24T00:13:21;4.85;;;2.35;;
68074;SDS011;54864;52.002;5.468;2023-04-24T00:14:21;2.80;;;2.20;;
68074;SDS011;54864;52.002;5.468;2023-04-24T00:15:26;3.55;;;2.20;;
68074;SDS011;54864;52.002;5.468;2023-04-24T00:16:26;2.47;;;2.00;;
68074;SDS011;54864;52.002;5.468;2023-04-24T00:17:28;3.17;;;2.30;;
68074;SDS011;54864;52.002;5.468;2023-04-24T00:18:29;5.00;;;2.30;;
68074;SDS011;54864;52.002;5.468;2023-04-24T00:19:30;2.45;;;2.15;;
68074;SDS011;54864;52.002;5.468;2023-04-24T00:20:31;4.93;;;2.30;;
68074;SDS011;54864;52.002;5.468;2023-04-24T00:21:36;2.22;;;2.00;;
68074;SDS011;54864;52.002;5.468;2023-04-24T00:22:39;3.50;;;2.50;;
68074;SDS011;54864;52.002;5.468;2023-04-24T00:23:53;7.55;;;2.22;;
68074;SDS011;54864;52.002;5.468;2023-04-24T00:24:53;2.42;;;1.90;;
68074;SDS011;54864;52.002;5.468;2023-04-24T00:25:55;3.55;;;1.90;;
68074;SDS011;54864;52.002;5.468;2023-04-24T00:26:56;4.00;;;1.80;;
68074;SDS011;54864;52.002;5.468;2023-04-24T00:27:58;2.47;;;1.70;;
68074;SDS011;54864;52.002;5.468;2023-04-24T00:28:59;2.47;;;1.80;;
68074;SDS011;54864;52.002;5.468;2023-04-24T00:30:01;2.20;;;1.90;;
68074;SDS011;54864;52.002;5.468;2023-04-24T00:31:03;3.60;;;1.80;;
68074;SDS011;54864;52.002;5.468;2023-04-24T00:32:06;5.97;;;2.00;;
68074;SDS011;54864;52.002;5.468;2023-04-24T00:33:09;3.00;;;1.80;;
68074;SDS011;54864;52.002;5.468;2023-04-24T00:34:11;1.73;;;1.63;;
68074;SDS011;54864;52.002;5.468;2023-04-24T00:35:15;3.00;;;1.90;;
68074;SDS011;54864;52.002;5.468;2023-04-24T00:36:20;3.20;;;1.80;;
68074;SDS011;54864;52.002;5.468;2023-04-24T00:37:21;2.03;;;1.83;;
68074;SDS011;54864;52.002;5.468;2023-04-24T00:38:23;3.22;;;1.90;;
68074;SDS011;54864;52.002;5.468;2023-04-24T00:39:23;3.38;;;2.13;;
68074;SDS011;54864;52.002;5.468;2023-04-24T00:40:25;4.60;;;1.92;;
68074;SDS011;54864;52.002;5.468;2023-04-24T00:41:27;2.40;;;2.20;;
68074;SDS011;54864;52.002;5.468;2023-04-24T00:42:29;4.32;;;2.00;;
68074;SDS011;54864;52.002;5.468;2023-04-24T00:43:33;1.88;;;1.65;;
68074;SDS011;54864;52.002;5.468;2023-04-24T00:44:36;4.25;;;2.20;;
68074;SDS011;54864;52.002;5.468;2023-04-24T00:45:37;3.63;;;2.20;;
68074;SDS011;54864;52.002;5.468;2023-04-24T00:46:42;2.03;;;1.83;;
68074;SDS011;54864;52.002;5.468;2023-04-24T00:47:44;3.55;;;1.90;;
68074;SDS011;54864;52.002;5.468;2023-04-24T00:48:46;3.35;;;1.70;;
68074;SDS011;54864;52.002;5.468;2023-04-24T00:49:47;1.85;;;1.65;;
68074;SDS011;54864;52.002;5.468;2023-04-24T00:50:49;3.75;;;1.60;;
68074;SDS011;54864;52.002;5.468;2023-04-24T00:51:49;4.10;;;1.70;;
68074;SDS011;54864;52.002;5.468;2023-04-24T00:52:51;2.65;;;1.65;;
68074;SDS011;54864;52.002;5.468;2023-04-24T00:53:52;2.88;;;1.30;;
68074;SDS011;54864;52.002;5.468;2023-04-24T00:54:54;2.08;;;1.35;;
68074;SDS011;54864;52.002;5.468;2023-04-24T00:55:55;3.33;;;1.42;;
68074;SDS011;54864;52.002;5.468;2023-04-24T00:56:57;3.50;;;1.60;;
68074;SDS011;54864;52.002;5.468;2023-04-24T00:58:00;1.40;;;1.30;;
68074;SDS011;54864;52.002;5.468;2023-04-24T00:59:05;2.67;;;1.55;;
68074;SDS011;54864;52.002;5.468;2023-04-24T01:00:10;1.67;;;1.50;;
68074;SDS011;54864;52.002;5.468;2023-04-24T01:01:13;3.13;;;1.90;;
68074;SDS011;54864;52.002;5.468;2023-04-24T01:02:14;2.65;;;1.85;;
68074;SDS011;54864;52.002;5.468;2023-04-24T01:03:16;5.15;;;1.90;;
68074;SDS011;54864;52.002;5.468;2023-04-24T01:04:18;2.20;;;1.77;;
68074;SDS011;54864;52.002;5.468;2023-04-24T01:05:20;1.70;;;1.60;;
68074;SDS011;54864;52.002;5.468;2023-04-24T01:06:21;4.20;;;1.60;;
68074;SDS011;54864;52.002;5.468;2023-04-24T01:07:24;4.70;;;1.67;;
68074;SDS011;54864;52.002;5.468;2023-04-24T01:08:26;1.92;;;1.40;;
68074;SDS011;54864;52.002;5.468;2023-04-24T01:09:29;2.00;;;1.60;;
68074;SDS011;54864;52.002;5.468;2023-04-24T01:10:37;1.67;;;1.17;;
68074;SDS011;54864;52.002;5.468;2023-04-24T01:11:41;2.53;;;1.38;;
68074;SDS011;54864;52.002;5.468;2023-04-24T01:12:43;1.35;;;1.08;;
68074;SDS011;54864;52.002;5.468;2023-04-24T01:14:01;1.17;;;1.08;;
68074;SDS011;54864;52.002;5.468;2023-04-24T01:15:03;2.30;;;1.50;;
68074;SDS011;54864;52.002;5.468;2023-04-24T01:16:07;1.33;;;1.13;;
68074;SDS011;54864;52.002;5.468;2023-04-24T01:17:08;1.90;;;1.00;;
68074;SDS011;54864;52.002;5.468;2023-04-24T01:18:11;1.10;;;1.00;;
68074;SDS011;54864;52.002;5.468;2023-04-24T01:19:13;1.30;;;1.00;;
68074;SDS011;54864;52.002;5.468;2023-04-24T01:20:15;2.80;;;1.45;;
68074;SDS011;54864;52.002;5.468;2023-04-24T01:21:18;1.40;;;1.30;;
68074;SDS011;54864;52.002;5.468;2023-04-24T01:22:22;1.00;;;1.00;;
68074;SDS011;54864;52.002;5.468;2023-04-24T01:23:24;1.30;;;1.20;;
68074;SDS011;54864;52.002;5.468;2023-04-24T01:24:28;1.75;;;1.20;;
68074;SDS011;54864;52.002;5.468;2023-04-24T01:25:36;1.27;;;1.17;;
68074;SDS011;54864;52.002;5.468;2023-04-24T01:26:37;1.40;;;1.23;;
68074;SDS011;54864;52.002;5.468;2023-04-24T01:27:38;5.03;;;1.50;;
68074;SDS011;54864;52.002;5.468;2023-04-24T01:28:39;2.78;;;1.27;;
68074;SDS011;54864;52.002;5.468;2023-04-24T01:29:44;1.70;;;1.30;;
68074;SDS011;54864;52.002;5.468;2023-04-24T01:30:45;2.33;;;1.42;;
68074;SDS011;54864;52.002;5.468;2023-04-24T01:31:47;1.50;;;1.40;;
68074;SDS011;54864;52.002;5.468;2023-04-24T01:32:47;1.90;;;1.80;;
68074;SDS011;54864;52.002;5.468;2023-04-24T01:33:49;2.90;;;1.65;;
68074;SDS011;54864;52.002;5.468;2023-04-24T01:34:51;2.40;;;1.60;;
68074;SDS011;54864;52.002;5.468;2023-04-24T01:35:53;1.63;;;1.52;;
68074;SDS011;54864;52.002;5.468;2023-04-24T01:36:55;2.15;;;1.80;;
68074;SDS011;54864;52.002;5.468;2023-04-24T01:37:59;3.22;;;2.53;;
68074;SDS011;54864;52.002;5.468;2023-04-24T01:38:59;2.67;;;2.13;;
68074;SDS011;54864;52.002;5.468;2023-04-24T01:40:06;3.15;;;1.77;;
68074;SDS011;54864;52.002;5.468;2023-04-24T01:41:07;2.35;;;2.15;;
68074;SDS011;54864;52.002;5.468;2023-04-24T01:42:12;3.25;;;2.17;;
68074;SDS011;54864;52.002;5.468;2023-04-24T01:43:13;3.88;;;2.35;;
68074;SDS011;54864;52.002;5.468;2023-04-24T01:44:15;3.35;;;2.05;;
68074;SDS011;54864;52.002;5.468;2023-04-24T01:45:17;2.00;;;1.90;;
68074;SDS011;54864;52.002;5.468;2023-04-24T01:46:19;3.45;;;1.95;;
68074;SDS011;54864;52.002;5.468;2023-04-24T01:47:23;3.50;;;2.20;;
68074;SDS011;54864;52.002;5.468;2023-04-24T01:48:39;2.15;;;1.80;;
68074;SDS011;54864;52.002;5.468;2023-04-24T01:49:41;3.33;;;2.00;;
68074;SDS011;54864;52.002;5.468;2023-04-24T01:50:43;2.92;;;2.22;;
68074;SDS011;54864;52.002;5.468;2023-04-24T01:51:43;2.37;;;2.17;;
68074;SDS011;54864;52.002;5.468;2023-04-24T01:52:45;2.55;;;2.25;;
68074;SDS011;54864;52.002;5.468;2023-04-24T01:53:47;4.18;;;2.30;;
68074;SDS011;54864;52.002;5.468;2023-04-24T01:54:49;4.10;;;3.00;;
68074;SDS011;54864;52.002;5.468;2023-04-24T01:55:50;3.30;;;3.00;;
68074;SDS011;54864;52.002;5.468;2023-04-24T01:56:55;3.75;;;3.35;;
68074;SDS011;54864;52.002;5.468;2023-04-24T01:57:55;4.30;;;3.90;;
68074;SDS011;54864;52.002;5.468;2023-04-24T01:58:58;4.70;;;4.20;;
68074;SDS011;54864;52.002;5.468;2023-04-24T02:00:03;4.93;;;4.13;;
68074;SDS011;54864;52.002;5.468;2023-04-24T02:01:07;5.55;;;4.22;;
68074;SDS011;54864;52.002;5.468;2023-04-24T02:02:10;4.70;;;3.90;;
68074;SDS011;54864;52.002;5.468;2023-04-24T02:03:12;5.32;;;4.72;;
68074;SDS011;54864;52.002;5.468;2023-04-24T02:04:16;4.90;;;4.40;;
68074;SDS011;54864;52.002;5.468;2023-04-24T02:05:17;5.68;;;4.80;;
68074;SDS011;54864;52.002;5.468;2023-04-24T02:06:18;5.45;;;4.63;;
68074;SDS011;54864;52.002;5.468;2023-04-24T02:07:20;6.05;;;4.47;;
68074;SDS011;54864;52.002;5.468;2023-04-24T02:08:20;4.70;;;4.30;;
68074;SDS011;54864;52.002;5.468;2023-04-24T02:09:26;4.93;;;4.10;;
68074;SDS011;54864;52.002;5.468;2023-04-24T02:10:27;6.38;;;4.72;;
68074;SDS011;54864;52.002;5.468;2023-04-24T02:11:29;5.70;;;4.80;;
68074;SDS011;54864;52.002;5.468;2023-04-24T02:12:30;5.13;;;4.40;;
68074;SDS011;54864;52.002;5.468;2023-04-24T02:13:31;6.28;;;4.50;;
68074;SDS011;54864;52.002;5.468;2023-04-24T02:14:32;5.75;;;4.60;;
68074;SDS011;54864;52.002;5.468;2023-04-24T02:15:34;8.77;;;5.50;;
68074;SDS011;54864;52.002;5.468;2023-04-24T02:16:37;7.05;;;4.60;;
68074;SDS011;54864;52.002;5.468;2023-04-24T02:17:39;5.97;;;4.93;;
68074;SDS011;54864;52.002;5.468;2023-04-24T02:18:39;6.05;;;5.00;;
68074;SDS011;54864;52.002;5.468;2023-04-24T02:19:41;7.00;;;4.78;;
68074;SDS011;54864;52.002;5.468;2023-04-24T02:20:42;7.45;;;5.15;;
68074;SDS011;54864;52.002;5.468;2023-04-24T02:21:44;5.63;;;4.82;;
68074;SDS011;54864;52.002;5.468;2023-04-24T02:22:45;6.05;;;5.30;;
68074;SDS011;54864;52.002;5.468;2023-04-24T02:23:47;6.43;;;5.03;;
68074;SDS011;54864;52.002;5.468;2023-04-24T02:24:49;6.95;;;5.10;;
68074;SDS011;54864;52.002;5.468;2023-04-24T02:25:52;5.57;;;4.25;;
68074;SDS011;54864;52.002;5.468;2023-04-24T02:26:53;5.87;;;4.80;;
68074;SDS011;54864;52.002;5.468;2023-04-24T02:27:55;5.85;;;4.82;;
68074;SDS011;54864;52.002;5.468;2023-04-24T02:28:56;6.80;;;4.60;;
68074;SDS011;54864;52.002;5.468;2023-04-24T02:29:58;5.00;;;4.50;;
68074;SDS011;54864;52.002;5.468;2023-04-24T02:31:04;7.00;;;4.93;;
68074;SDS011;54864;52.002;5.468;2023-04-24T02:32:06;7.03;;;5.20;;
68074;SDS011;54864;52.002;5.468;2023-04-24T02:33:13;7.70;;;5.22;;
68074;SDS011;54864;52.002;5.468;2023-04-24T02:34:14;6.88;;;5.38;;
68074;SDS011;54864;52.002;5.468;2023-04-24T02:35:16;6.57;;;5.43;;
68074;SDS011;54864;52.002;5.468;2023-04-24T02:36:20;7.18;;;5.57;;
68074;SDS011;54864;52.002;5.468;2023-04-24T02:37:24;7.28;;;5.60;;
68074;SDS011;54864;52.002;5.468;2023-04-24T02:38:25;6.00;;;5.40;;
68074;SDS011;54864;52.002;5.468;2023-04-24T02:39:26;9.30;;;5.90;;
68074;SDS011;54864;52.002;5.468;2023-04-24T02:40:29;8.20;;;6.03;;
68074;SDS011;54864;52.002;5.468;2023-04-24T02:41:30;7.40;;;6.70;;
68074;SDS011;54864;52.002;5.468;2023-04-24T02:42:33;7.90;;;6.30;;
68074;SDS011;54864;52.002;5.468;2023-04-24T02:43:36;7.85;;;6.60;;
68074;SDS011;54864;52.002;5.468;2023-04-24T02:44:39;9.98;;;6.88;;
68074;SDS011;54864;52.002;5.468;2023-04-24T02:45:44;9.13;;;6.88;;
68074;SDS011;54864;52.002;5.468;2023-04-24T02:46:45;9.03;;;7.07;;
68074;SDS011;54864;52.002;5.468;2023-04-24T02:47:50;8.07;;;6.70;;
68074;SDS011;54864;52.002;5.468;2023-04-24T02:48:51;9.73;;;6.65;;
68074;SDS011;54864;52.002;5.468;2023-04-24T02:49:52;8.10;;;6.95;;
68074;SDS011;54864;52.002;5.468;2023-04-24T02:50:53;9.15;;;7.20;;
68074;SDS011;54864;52.002;5.468;2023-04-24T02:51:57;7.80;;;6.57;;
68074;SDS011;54864;52.002;5.468;2023-04-24T02:52:58;9.27;;;7.47;;
68074;SDS011;54864;52.002;5.468;2023-04-24T02:54:00;8.50;;;7.53;;
68074;SDS011;54864;52.002;5.468;2023-04-24T02:55:01;8.73;;;6.40;;
68074;SDS011;54864;52.002;5.468;2023-04-24T02:56:04;9.18;;;6.93;;
68074;SDS011;54864;52.002;5.468;2023-04-24T02:57:05;8.80;;;7.20;;
68074;SDS011;54864;52.002;5.468;2023-04-24T02:58:07;8.00;;;7.03;;
68074;SDS011;54864;52.002;5.468;2023-04-24T02:59:08;10.70;;;7.10;;
68074;SDS011;54864;52.002;5.468;2023-04-24T03:00:11;8.13;;;6.90;;
68074;SDS011;54864;52.002;5.468;2023-04-24T03:01:13;8.30;;;7.00;;
68074;SDS011;54864;52.002;5.468;2023-04-24T03:02:15;8.95;;;7.10;;
68074;SDS011;54864;52.002;5.468;2023-04-24T03:03:15;7.43;;;6.70;;
68074;SDS011;54864;52.002;5.468;2023-04-24T03:04:18;8.30;;;6.50;;
68074;SDS011;54864;52.002;5.468;2023-04-24T03:05:20;7.25;;;5.85;;
68074;SDS011;54864;52.002;5.468;2023-04-24T03:06:22;6.93;;;5.88;;
68074;SDS011;54864;52.002;5.468;2023-04-24T03:07:24;7.05;;;6.07;;
68074;SDS011;54864;52.002;5.468;2023-04-24T03:08:26;7.53;;;6.43;;
68074;SDS011;54864;52.002;5.468;2023-04-24T03:09:29;6.80;;;5.97;;
68074;SDS011;54864;52.002;5.468;2023-04-24T03:10:31;7.45;;;6.68;;
68074;SDS011;54864;52.002;5.468;2023-04-24T03:11:33;8.50;;;6.68;;
68074;SDS011;54864;52.002;5.468;2023-04-24T03:12:35;7.72;;;6.40;;
68074;SDS011;54864;52.002;5.468;2023-04-24T03:13:36;9.73;;;7.60;;
68074;SDS011;54864;52.002;5.468;2023-04-24T03:14:37;9.63;;;7.25;;
68074;SDS011;54864;52.002;5.468;2023-04-24T03:15:38;8.63;;;7.25;;
68074;SDS011;54864;52.002;5.468;2023-04-24T03:16:40;9.68;;;7.70;;
68074;SDS011;54864;52.002;5.468;2023-04-24T03:17:40;10.07;;;7.90;;
68074;SDS011;54864;52.002;5.468;2023-04-24T03:18:42;11.18;;;7.97;;
68074;SDS011;54864;52.002;5.468;2023-04-24T03:19:43;10.30;;;7.90;;
68074;SDS011;54864;52.002;5.468;2023-04-24T03:20:45;10.00;;;8.30;;
68074;SDS011;54864;52.002;5.468;2023-04-24T03:21:46;9.40;;;7.90;;
68074;SDS011;54864;52.002;5.468;2023-04-24T03:22:48;8.27;;;7.38;;
68074;SDS011;54864;52.002;5.468;2023-04-24T03:23:48;11.83;;;8.23;;
68074;SDS011;54864;52.002;5.468;2023-04-24T03:24:53;10.73;;;8.10;;
68074;SDS011;54864;52.002;5.468;2023-04-24T03:25:56;10.90;;;8.57;;
68074;SDS011;54864;52.002;5.468;2023-04-24T03:26:58;10.45;;;9.23;;
68074;SDS011;54864;52.002;5.468;2023-04-24T03:28:00;12.05;;;9.50;;
68074;SDS011;54864;52.002;5.468;2023-04-24T03:29:00;11.87;;;9.97;;
68074;SDS011;54864;52.002;5.468;2023-04-24T03:30:02;13.93;;;10.43;;
68074;SDS011;54864;52.002;5.468;2023-04-24T03:31:04;15.85;;;12.25;;
68074;SDS011;54864;52.002;5.468;2023-04-24T03:32:06;15.82;;;12.18;;
68074;SDS011;54864;52.002;5.468;2023-04-24T03:33:07;15.83;;;12.07;;
68074;SDS011;54864;52.002;5.468;2023-04-24T03:34:09;17.15;;;13.30;;
68074;SDS011;54864;52.002;5.468;2023-04-24T03:35:13;17.85;;;13.88;;
68074;SDS011;54864;52.002;5.468;2023-04-24T03:36:21;17.13;;;13.65;;
68074;SDS011;54864;52.002;5.468;2023-04-24T03:37:22;19.70;;;14.95;;
68074;SDS011;54864;52.002;5.468;2023-04-24T03:38:23;18.67;;;14.70;;
68074;SDS011;54864;52.002;5.468;2023-04-24T03:39:25;18.38;;;15.02;;
68074;SDS011;54864;52.002;5.468;2023-04-24T03:40:25;22.52;;;15.98;;
68074;SDS011;54864;52.002;5.468;2023-04-24T03:41:28;22.52;;;16.52;;
68074;SDS011;54864;52.002;5.468;2023-04-24T03:42:31;22.17;;;17.07;;
68074;SDS011;54864;52.002;5.468;2023-04-24T03:43:33;25.17;;;18.20;;
68074;SDS011;54864;52.002;5.468;2023-04-24T03:44:34;23.10;;;18.33;;
68074;SDS011;54864;52.002;5.468;2023-04-24T03:45:39;23.60;;;18.13;;
68074;SDS011;54864;52.002;5.468;2023-04-24T03:46:40;24.10;;;17.43;;
68074;SDS011;54864;52.002;5.468;2023-04-24T03:47:41;24.75;;;17.98;;
68074;SDS011;54864;52.002;5.468;2023-04-24T03:48:42;22.70;;;17.83;;
68074;SDS011;54864;52.002;5.468;2023-04-24T03:49:46;22.25;;;16.80;;
68074;SDS011;54864;52.002;5.468;2023-04-24T03:50:50;21.45;;;15.90;;
68074;SDS011;54864;52.002;5.468;2023-04-24T03:51:52;21.20;;;17.25;;
68074;SDS011;54864;52.002;5.468;2023-04-24T03:52:53;25.77;;;17.87;;
68074;SDS011;54864;52.002;5.468;2023-04-24T03:53:54;26.52;;;17.42;;
68074;SDS011;54864;52.002;5.468;2023-04-24T03:54:55;24.67;;;17.58;;
68074;SDS011;54864;52.002;5.468;2023-04-24T03:55:57;25.10;;;17.17;;
68074;SDS011;54864;52.002;5.468;2023-04-24T03:56:57;25.00;;;17.25;;
68074;SDS011;54864;52.002;5.468;2023-04-24T03:58:01;20.92;;;15.98;;
68074;SDS011;54864;52.002;5.468;2023-04-24T03:59:02;23.45;;;17.05;;
68074;SDS011;54864;52.002;5.468;2023-04-24T04:00:04;22.90;;;16.75;;
68074;SDS011;54864;52.002;5.468;2023-04-24T04:01:06;22.77;;;17.17;;
68074;SDS011;54864;52.002;5.468;2023-04-24T04:02:08;23.10;;;16.92;;
68074;SDS011;54864;52.002;5.468;2023-04-24T04:03:08;24.23;;;17.20;;
68074;SDS011;54864;52.002;5.468;2023-04-24T04:04:10;26.85;;;16.55;;
68074;SDS011;54864;52.002;5.468;2023-04-24T04:05:11;23.57;;;17.23;;
68074;SDS011;54864;52.002;5.468;2023-04-24T04:06:13;27.08;;;17.52;;
68074;SDS011;54864;52.002;5.468;2023-04-24T04:07:13;23.35;;;17.15;;
68074;SDS011;54864;52.002;5.468;2023-04-24T04:08:15;25.13;;;17.15;;
68074;SDS011;54864;52.002;5.468;2023-04-24T04:09:16;26.17;;;17.17;;
68074;SDS011;54864;52.002;5.468;2023-04-24T04:10:17;26.85;;;16.88;;
68074;SDS011;54864;52.002;5.468;2023-04-24T04:11:18;22.08;;;16.65;;
68074;SDS011;54864;52.002;5.468;2023-04-24T04:12:20;24.25;;;16.98;;
68074;SDS011;54864;52.002;5.468;2023-04-24T04:13:22;22.15;;;17.08;;
68074;SDS011;54864;52.002;5.468;2023-04-24T04:14:24;20.63;;;17.25;;
68074;SDS011;54864;52.002;5.468;2023-04-24T04:15:25;21.90;;;17.13;;
68074;SDS011;54864;52.002;5.468;2023-04-24T04:16:32;21.20;;;16.50;;
68074;SDS011;54864;52.002;5.468;2023-04-24T04:17:33;22.30;;;16.90;;
68074;SDS011;54864;52.002;5.468;2023-04-24T04:18:35;22.27;;;16.05;;
68074;SDS011;54864;52.002;5.468;2023-04-24T04:19:43;21.70;;;16.50;;
68074;SDS011;54864;52.002;5.468;2023-04-24T04:20:44;18.65;;;15.25;;
68074;SDS011;54864;52.002;5.468;2023-04-24T04:21:45;17.10;;;13.80;;
68074;SDS011;54864;52.002;5.468;2023-04-24T04:22:52;17.00;;;13.15;;
68074;SDS011;54864;52.002;5.468;2023-04-24T04:23:52;18.50;;;13.25;;
68074;SDS011;54864;52.002;5.468;2023-04-24T04:24:57;14.73;;;12.30;;
68074;SDS011;54864;52.002;5.468;2023-04-24T04:25:57;12.60;;;9.25;;
68074;SDS011;54864;52.002;5.468;2023-04-24T04:26:59;10.23;;;8.30;;
68074;SDS011;54864;52.002;5.468;2023-04-24T04:28:00;8.10;;;7.22;;
68074;SDS011;54864;52.002;5.468;2023-04-24T04:29:03;8.45;;;6.78;;
68074;SDS011;54864;52.002;5.468;2023-04-24T04:30:05;8.65;;;6.50;;
68074;SDS011;54864;52.002;5.468;2023-04-24T04:31:07;9.35;;;6.40;;
68074;SDS011;54864;52.002;5.468;2023-04-24T04:32:08;6.97;;;5.55;;
68074;SDS011;54864;52.002;5.468;2023-04-24T04:33:09;8.77;;;5.82;;
68074;SDS011;54864;52.002;5.468;2023-04-24T04:34:10;7.05;;;5.43;;
68074;SDS011;54864;52.002;5.468;2023-04-24T04:35:12;8.80;;;5.60;;
68074;SDS011;54864;52.002;5.468;2023-04-24T04:36:14;5.53;;;4.72;;
68074;SDS011;54864;52.002;5.468;2023-04-24T04:37:23;6.97;;;4.78;;
68074;SDS011;54864;52.002;5.468;2023-04-24T04:38:28;7.40;;;4.10;;
68074;SDS011;54864;52.002;5.468;2023-04-24T04:39:30;5.57;;;4.32;;
68074;SDS011;54864;52.002;5.468;2023-04-24T04:40:33;6.10;;;4.25;;
68074;SDS011;54864;52.002;5.468;2023-04-24T04:41:37;4.97;;;4.47;;
68074;SDS011;54864;52.002;5.468;2023-04-24T04:42:40;5.38;;;4.43;;
68074;SDS011;54864;52.002;5.468;2023-04-24T04:43:42;5.43;;;4.40;;
68074;SDS011;54864;52.002;5.468;2023-04-24T04:44:44;6.93;;;4.13;;
68074;SDS011;54864;52.002;5.468;2023-04-24T04:45:46;6.65;;;4.32;;
68074;SDS011;54864;52.002;5.468;2023-04-24T04:46:48;6.25;;;4.60;;
68074;SDS011;54864;52.002;5.468;2023-04-24T04:47:50;5.45;;;4.45;;
68074;SDS011;54864;52.002;5.468;2023-04-24T04:48:53;5.17;;;4.67;;
68074;SDS011;54864;52.002;5.468;2023-04-24T04:49:57;6.00;;;4.40;;
68074;SDS011;54864;52.002;5.468;2023-04-24T04:50:57;6.77;;;5.00;;
68074;SDS011;54864;52.002;5.468;2023-04-24T04:51:59;6.10;;;4.85;;
68074;SDS011;54864;52.002;5.468;2023-04-24T04:53:00;5.72;;;4.47;;
68074;SDS011;54864;52.002;5.468;2023-04-24T04:54:05;5.50;;;4.60;;
68074;SDS011;54864;52.002;5.468;2023-04-24T04:55:06;7.45;;;4.75;;
68074;SDS011;54864;52.002;5.468;2023-04-24T04:56:08;5.13;;;4.50;;
68074;SDS011;54864;52.002;5.468;2023-04-24T04:57:10;5.43;;;4.30;;
68074;SDS011;54864;52.002;5.468;2023-04-24T04:58:15;7.15;;;5.07;;
68074;SDS011;54864;52.002;5.468;2023-04-24T04:59:15;5.23;;;4.70;;
68074;SDS011;54864;52.002;5.468;2023-04-24T05:00:18;6.38;;;4.43;;
68074;SDS011;54864;52.002;5.468;2023-04-24T05:01:19;7.35;;;4.75;;
68074;SDS011;54864;52.002;5.468;2023-04-24T05:02:21;5.25;;;4.35;;
68074;SDS011;54864;52.002;5.468;2023-04-24T05:03:21;5.00;;;4.50;;
68074;SDS011;54864;52.002;5.468;2023-04-24T05:04:23;4.80;;;4.40;;
68074;SDS011;54864;52.002;5.468;2023-04-24T05:05:33;6.50;;;4.75;;
68074;SDS011;54864;52.002;5.468;2023-04-24T05:06:34;7.22;;;4.40;;
68074;SDS011;54864;52.002;5.468;2023-04-24T05:07:35;10.07;;;4.40;;
68074;SDS011;54864;52.002;5.468;2023-04-24T05:08:40;5.65;;;4.13;;
68074;SDS011;54864;52.002;5.468;2023-04-24T05:09:41;5.18;;;4.20;;
68074;SDS011;54864;52.002;5.468;2023-04-24T05:10:42;5.07;;;4.57;;
68074;SDS011;54864;52.002;5.468;2023-04-24T05:11:52;6.53;;;4.05;;
68074;SDS011;54864;52.002;5.468;2023-04-24T05:12:57;5.72;;;4.35;;
68074;SDS011;54864;52.002;5.468;2023-04-24T05:13:58;7.33;;;4.50;;
68074;SDS011;54864;52.002;5.468;2023-04-24T05:14:59;8.63;;;4.47;;
68074;SDS011;54864;52.002;5.468;2023-04-24T05:16:01;6.45;;;3.97;;
68074;SDS011;54864;52.002;5.468;2023-04-24T05:17:07;4.40;;;3.70;;
68074;SDS011;54864;52.002;5.468;2023-04-24T05:18:08;6.57;;;4.65;;
68074;SDS011;54864;52.002;5.468;2023-04-24T05:19:09;5.35;;;4.38;;
68074;SDS011;54864;52.002;5.468;2023-04-24T05:20:11;4.82;;;4.30;;
68074;SDS011;54864;52.002;5.468;2023-04-24T05:21:16;8.20;;;4.63;;
68074;SDS011;54864;52.002;5.468;2023-04-24T05:22:17;10.03;;;4.40;;
68074;SDS011;54864;52.002;5.468;2023-04-24T05:23:21;4.47;;;4.07;;
68074;SDS011;54864;52.002;5.468;2023-04-24T05:24:21;7.10;;;4.20;;
68074;SDS011;54864;52.002;5.468;2023-04-24T05:25:23;5.82;;;4.20;;
68074;SDS011;54864;52.002;5.468;2023-04-24T05:26:24;4.40;;;3.85;;
68074;SDS011;54864;52.002;5.468;2023-04-24T05:27:28;6.10;;;4.50;;
68074;SDS011;54864;52.002;5.468;2023-04-24T05:28:29;6.47;;;4.97;;
68074;SDS011;54864;52.002;5.468;2023-04-24T05:29:31;4.68;;;4.13;;
68074;SDS011;54864;52.002;5.468;2023-04-24T05:30:35;4.80;;;4.20;;
68074;SDS011;54864;52.002;5.468;2023-04-24T05:31:38;6.90;;;4.20;;
68074;SDS011;54864;52.002;5.468;2023-04-24T05:32:39;6.72;;;4.25;;
68074;SDS011;54864;52.002;5.468;2023-04-24T05:33:41;5.45;;;3.90;;
68074;SDS011;54864;52.002;5.468;2023-04-24T05:34:42;4.90;;;4.07;;
68074;SDS011;54864;52.002;5.468;2023-04-24T05:35:46;5.45;;;4.55;;
68074;SDS011;54864;52.002;5.468;2023-04-24T05:36:51;5.07;;;3.65;;
68074;SDS011;54864;52.002;5.468;2023-04-24T05:37:53;6.03;;;3.75;;
68074;SDS011;54864;52.002;5.468;2023-04-24T05:38:55;5.68;;;3.90;;
68074;SDS011;54864;52.002;5.468;2023-04-24T05:39:56;4.20;;;3.75;;
68074;SDS011;54864;52.002;5.468;2023-04-24T05:41:00;4.65;;;3.78;;
68074;SDS011;54864;52.002;5.468;2023-04-24T05:42:01;7.33;;;3.63;;
68074;SDS011;54864;52.002;5.468;2023-04-24T05:43:04;7.65;;;4.05;;
68074;SDS011;54864;52.002;5.468;2023-04-24T05:44:05;5.87;;;3.80;;
68074;SDS011;54864;52.002;5.468;2023-04-24T05:45:07;6.35;;;4.15;;
68074;SDS011;54864;52.002;5.468;2023-04-24T05:46:09;4.75;;;3.72;;
68074;SDS011;54864;52.002;5.468;2023-04-24T05:47:12;6.57;;;3.92;;
68074;SDS011;54864;52.002;5.468;2023-04-24T05:48:13;6.93;;;3.70;;
68074;SDS011;54864;52.002;5.468;2023-04-24T05:49:14;4.22;;;3.25;;
68074;SDS011;54864;52.002;5.468;2023-04-24T05:50:15;4.77;;;3.20;;
68074;SDS011;54864;52.002;5.468;2023-04-24T05:51:16;5.95;;;3.28;;
68074;SDS011;54864;52.002;5.468;2023-04-24T05:52:18;4.43;;;3.08;;
68074;SDS011;54864;52.002;5.468;2023-04-24T05:53:22;3.55;;;3.22;;
68074;SDS011;54864;52.002;5.468;2023-04-24T05:54:26;4.28;;;3.35;;
68074;SDS011;54864;52.002;5.468;2023-04-24T05:55:28;4.40;;;3.33;;
68074;SDS011;54864;52.002;5.468;2023-04-24T05:56:30;4.60;;;2.95;;
68074;SDS011;54864;52.002;5.468;2023-04-24T05:57:32;3.58;;;3.25;;
68074;SDS011;54864;52.002;5.468;2023-04-24T05:58:33;4.47;;;3.38;;
68074;SDS011;54864;52.002;5.468;2023-04-24T05:59:36;4.13;;;3.05;;
68074;SDS011;54864;52.002;5.468;2023-04-24T06:00:37;3.72;;;3.30;;
68074;SDS011;54864;52.002;5.468;2023-04-24T06:01:45;5.28;;;3.42;;
68074;SDS011;54864;52.002;5.468;2023-04-24T06:02:48;3.80;;;3.13;;
68074;SDS011;54864;52.002;5.468;2023-04-24T06:03:50;3.70;;;3.33;;
68074;SDS011;54864;52.002;5.468;2023-04-24T06:04:51;5.28;;;3.78;;
68074;SDS011;54864;52.002;5.468;2023-04-24T06:05:52;4.53;;;3.43;;
68074;SDS011;54864;52.002;5.468;2023-04-24T06:06:53;4.23;;;3.77;;
68074;SDS011;54864;52.002;5.468;2023-04-24T06:07:56;3.85;;;3.40;;
68074;SDS011;54864;52.002;5.468;2023-04-24T06:08:59;6.38;;;3.40;;
68074;SDS011;54864;52.002;5.468;2023-04-24T06:10:07;6.18;;;3.25;;
68074;SDS011;54864;52.002;5.468;2023-04-24T06:11:10;6.15;;;3.97;;
68074;SDS011;54864;52.002;5.468;2023-04-24T06:12:12;6.35;;;3.83;;
68074;SDS011;54864;52.002;5.468;2023-04-24T06:13:13;6.32;;;4.22;;
68074;SDS011;54864;52.002;5.468;2023-04-24T06:14:15;5.97;;;4.43;;